createdAt,value
2022-08-19T00:41:23.022Z,21.86
2022-08-19T00:46:34.850Z,21.74
2022-08-19T00:51:41.390Z,21.60
2022-08-19T00:56:50.346Z,21.65
2022-08-19T01:02:01.044Z,21.64
2022-08-19T01:07:09.540Z,21.43
2022-08-19T01:35:43.249Z,21.70
2022-08-19T01:40:56.956Z,21.59
2022-08-19T01:46:02.950Z,21.28
2022-08-19T01:51:22.287Z,21.42
2022-08-19T01:56:45.410Z,21.40
2022-08-19T04:08:29.788Z,21.38
2022-08-19T06:59:11.291Z,20.47
2022-08-19T07:04:18.786Z,20.49
2022-08-19T07:09:26.460Z,20.61
2022-08-19T07:14:36.877Z,20.67
2022-08-19T07:19:44.469Z,20.68
2022-08-19T07:24:51.076Z,20.78
2022-08-19T07:30:05.745Z,20.69
2022-08-19T07:35:20.886Z,20.61
2022-08-19T07:51:36.898Z,20.69
2022-08-19T07:56:53.867Z,20.54
2022-08-19T08:02:04.070Z,20.69
2022-08-19T08:13:08.547Z,20.66
2022-08-19T08:34:55.104Z,20.73
2022-08-19T08:40:12.963Z,20.59
2022-08-19T08:45:25.308Z,20.69
2022-08-19T08:50:47.801Z,20.72
2022-08-19T08:55:57.810Z,20.82
2022-08-19T09:01:11.302Z,20.98
2022-08-19T09:06:32.314Z,21.03
2022-08-19T09:17:33.362Z,21.07
2022-08-19T09:22:54.800Z,21.31
2022-08-19T10:13:27.538Z,21.96
2022-08-19T10:18:49.612Z,22.06
2022-08-19T10:24:00.101Z,22.66
2022-08-19T10:29:14.666Z,22.95
2022-08-19T10:46:05.415Z,22.49
2022-08-19T12:22:39.526Z,22.28
2022-08-19T12:27:57.298Z,22.10
2022-08-19T12:33:10.204Z,22.11
2022-08-19T12:38:30.194Z,22.28
2022-08-19T12:43:40.467Z,22.65
2022-08-19T12:48:56.108Z,22.60
2022-08-19T13:16:17.260Z,23.10
2022-08-19T13:50:02.280Z,22.35
2022-08-19T14:39:54.779Z,22.34
2022-08-19T14:45:30.743Z,22.15
2022-08-19T14:50:59.704Z,22.16
2022-08-19T15:07:50.359Z,21.72
2022-08-19T15:18:41.264Z,22.00
2022-08-19T15:29:44.814Z,21.87
2022-08-19T17:06:59.837Z,21.80
2022-08-19T17:12:09.652Z,21.77
2022-08-19T17:44:59.761Z,21.58
2022-08-19T17:50:14.294Z,21.65
2022-08-19T17:55:33.554Z,21.74
2022-08-19T18:00:53.354Z,21.59
2022-08-19T18:06:09.689Z,21.49
2022-08-19T18:11:18.430Z,21.55
2022-08-19T18:16:32.962Z,21.56
2022-08-19T18:21:42.908Z,21.50
2022-08-19T18:32:25.444Z,21.49
2022-08-19T18:37:46.487Z,21.63
2022-08-19T18:43:11.013Z,21.59
2022-08-19T18:48:39.166Z,21.48
2022-08-19T18:53:57.096Z,21.37
2022-08-19T18:59:08.425Z,21.29
2022-08-19T19:04:19.515Z,21.42
2022-08-19T19:09:35.489Z,21.34
2022-08-19T19:14:49.427Z,21.09
2022-08-19T19:20:05.400Z,21.18
2022-08-19T19:25:16.290Z,21.19
2022-08-19T19:30:25.211Z,21.22
2022-08-19T19:41:25.111Z,21.14
2022-08-19T19:57:50.961Z,21.01
2022-08-19T20:02:59.828Z,21.09
2022-08-19T20:08:20.110Z,21.01
2022-08-19T20:13:33.098Z,20.92
2022-08-19T20:18:40.747Z,20.84
2022-08-19T20:24:09.712Z,20.85
2022-08-19T20:29:39.424Z,20.98
2022-08-19T20:34:49.646Z,20.91
2022-08-19T20:39:55.240Z,20.90
2022-08-19T20:45:08.697Z,20.70
2022-08-19T20:50:32.697Z,20.81
2022-08-19T20:55:38.878Z,20.67
2022-08-19T21:00:48.668Z,20.97
2022-08-19T21:05:54.219Z,20.73
2022-08-19T21:11:01.068Z,20.77
2022-08-19T21:16:09.801Z,20.78
2022-08-19T21:21:16.187Z,20.35
2022-08-19T21:26:23.050Z,20.43
2022-08-19T21:31:31.526Z,20.34
2022-08-19T21:36:38.350Z,20.62
2022-08-19T21:41:43.942Z,20.57
2022-08-19T21:46:51.792Z,20.61
2022-08-19T21:51:57.456Z,20.41
2022-08-19T21:57:03.740Z,20.45
2022-08-19T22:02:20.775Z,20.64
2022-08-19T22:07:29.331Z,20.63
2022-08-19T22:12:38.406Z,20.81
2022-08-19T22:17:55.393Z,20.72
2022-08-19T22:23:05.683Z,20.57
2022-08-19T22:28:18.895Z,20.55
2022-08-19T22:33:33.927Z,20.61
2022-08-19T22:38:39.754Z,20.61
2022-08-19T22:49:28.096Z,20.50
2022-08-19T22:54:34.282Z,20.27
2022-08-19T22:59:41.172Z,20.27
2022-08-19T23:04:50.185Z,20.18
2022-08-19T23:10:03.502Z,20.19
2022-08-19T23:15:13.030Z,20.12
2022-08-19T23:20:23.437Z,20.39
2022-08-19T23:25:32.495Z,20.20
2022-08-19T23:30:43.972Z,20.44
2022-08-19T23:35:52.322Z,20.46
2022-08-19T23:41:01.377Z,20.43
2022-08-19T23:46:11.623Z,20.31
2022-08-19T23:51:22.917Z,20.21
2022-08-19T23:56:28.348Z,20.12
